sensor_id;sensor_type;location;lat;lon;timestamp;pressure;altitude;pressure_sealevel;temperature;humidity
37848;BME280;23688;33.130;-117.188;2024-01-11T00:02:00;99363.50;;;13.34;100.00
37848;BME280;23688;33.130;-117.188;2024-01-11T00:04:28;99344.50;;;13.38;100.00
37848;BME280;23688;33.130;-117.188;2024-01-11T00:06:54;99353.69;;;13.55;100.00
37848;BME280;23688;33.130;-117.188;2024-01-11T00:09:20;99335.16;;;13.44;100.00
37848;BME280;23688;33.130;-117.188;2024-01-11T00:11:46;99347.72;;;13.59;100.00
37848;BME280;23688;33.130;-117.188;2024-01-11T00:14:13;99341.13;;;13.74;100.00
37848;BME280;23688;33.130;-117.188;2024-01-11T00:16:42;99307.59;;;13.54;100.00
37848;BME280;23688;33.130;-117.188;2024-01-11T00:19:08;99340.75;;;13.58;100.00
37848;BME280;23688;33.130;-117.188;2024-01-11T00:21:35;99331.69;;;13.45;100.00
37848;BME280;23688;33.130;-117.188;2024-01-11T00:24:01;99345.25;;;13.34;100.00
37848;BME280;23688;33.130;-117.188;2024-01-11T00:26:27;99337.50;;;13.35;100.00
37848;BME280;23688;33.130;-117.188;2024-01-11T00:28:54;99333.06;;;13.33;100.00
37848;BME280;23688;33.130;-117.188;2024-01-11T00:31:20;99346.34;;;13.12;100.00
37848;BME280;23688;33.130;-117.188;2024-01-11T00:33:46;99344.09;;;13.24;100.00
37848;BME280;23688;33.130;-117.188;2024-01-11T00:36:18;99346.84;;;13.28;100.00
37848;BME280;23688;33.130;-117.188;2024-01-11T00:38:46;99344.38;;;13.03;100.00
37848;BME280;23688;33.130;-117.188;2024-01-11T00:41:15;99346.63;;;12.91;100.00
37848;BME280;23688;33.130;-117.188;2024-01-11T00:43:41;99354.72;;;12.71;100.00
37848;BME280;23688;33.130;-117.188;2024-01-11T00:46:08;99348.22;;;12.57;100.00
37848;BME280;23688;33.130;-117.188;2024-01-11T00:48:34;99362.81;;;12.52;100.00
37848;BME280;23688;33.130;-117.188;2024-01-11T00:51:00;99357.50;;;12.49;100.00
37848;BME280;23688;33.130;-117.188;2024-01-11T00:53:26;99350.38;;;12.43;100.00
37848;BME280;23688;33.130;-117.188;2024-01-11T00:56:00;99372.63;;;12.33;100.00
37848;BME280;23688;33.130;-117.188;2024-01-11T00:58:26;99367.25;;;12.27;100.00
37848;BME280;23688;33.130;-117.188;2024-01-11T01:00:53;99376.66;;;12.24;100.00
37848;BME280;23688;33.130;-117.188;2024-01-11T01:03:21;99374.41;;;12.34;100.00
37848;BME280;23688;33.130;-117.188;2024-01-11T01:05:47;99372.63;;;12.33;100.00
37848;BME280;23688;33.130;-117.188;2024-01-11T01:08:14;99368.34;;;12.34;100.00
37848;BME280;23688;33.130;-117.188;2024-01-11T01:10:40;99351.16;;;12.13;100.00
37848;BME280;23688;33.130;-117.188;2024-01-11T01:13:06;99373.03;;;12.46;100.00
37848;BME280;23688;33.130;-117.188;2024-01-11T01:15:33;99378.13;;;12.42;100.00
37848;BME280;23688;33.130;-117.188;2024-01-11T01:17:59;99369.84;;;12.27;100.00
37848;BME280;23688;33.130;-117.188;2024-01-11T01:20:25;99374.91;;;12.23;100.00
37848;BME280;23688;33.130;-117.188;2024-01-11T01:22:51;99378.03;;;12.39;100.00
37848;BME280;23688;33.130;-117.188;2024-01-11T01:25:18;99376.38;;;12.41;100.00
37848;BME280;23688;33.130;-117.188;2024-01-11T01:27:44;99371.06;;;12.38;100.00
37848;BME280;23688;33.130;-117.188;2024-01-11T01:30:10;99375.22;;;12.33;100.00
37848;BME280;23688;33.130;-117.188;2024-01-11T01:32:36;99364.09;;;12.37;100.00
37848;BME280;23688;33.130;-117.188;2024-01-11T01:35:03;99373.31;;;12.55;100.00
37848;BME280;23688;33.130;-117.188;2024-01-11T01:37:29;99370.53;;;12.49;100.00
37848;BME280;23688;33.130;-117.188;2024-01-11T01:39:55;99371.72;;;12.58;100.00
37848;BME280;23688;33.130;-117.188;2024-01-11T01:42:22;99375.56;;;12.71;100.00
37848;BME280;23688;33.130;-117.188;2024-01-11T01:44:48;99380.56;;;12.65;100.00
37848;BME280;23688;33.130;-117.188;2024-01-11T01:47:15;99384.47;;;12.51;100.00
37848;BME280;23688;33.130;-117.188;2024-01-11T01:49:43;99378.03;;;12.39;100.00
37848;BME280;23688;33.130;-117.188;2024-01-11T01:52:11;99369.38;;;12.40;100.00
37848;BME280;23688;33.130;-117.188;2024-01-11T01:54:40;99377.19;;;12.68;100.00
37848;BME280;23688;33.130;-117.188;2024-01-11T01:57:07;99387.59;;;12.68;100.00
37848;BME280;23688;33.130;-117.188;2024-01-11T01:59:35;99382.72;;;12.78;100.00
37848;BME280;23688;33.130;-117.188;2024-01-11T02:02:04;99379.63;;;12.90;100.00
37848;BME280;23688;33.130;-117.188;2024-01-11T02:04:32;99378.25;;;13.03;100.00
37848;BME280;23688;33.130;-117.188;2024-01-11T02:06:58;99380.63;;;12.95;100.00
37848;BME280;23688;33.130;-117.188;2024-01-11T02:09:25;99377.41;;;13.04;100.00
37848;BME280;23688;33.130;-117.188;2024-01-11T02:11:53;99381.13;;;13.12;100.00
37848;BME280;23688;33.130;-117.188;2024-01-11T02:14:20;99375.50;;;12.98;100.00
37848;BME280;23688;33.130;-117.188;2024-01-11T02:16:47;99384.44;;;13.06;100.00
37848;BME280;23688;33.130;-117.188;2024-01-11T02:19:13;99369.59;;;13.04;100.00
37848;BME280;23688;33.130;-117.188;2024-01-11T02:21:43;99374.84;;;13.05;100.00
37848;BME280;23688;33.130;-117.188;2024-01-11T02:24:10;99377.38;;;13.02;100.00
37848;BME280;23688;33.130;-117.188;2024-01-11T02:26:36;99382.69;;;13.05;100.00
37848;BME280;23688;33.130;-117.188;2024-01-11T02:29:03;99376.44;;;13.00;100.00
37848;BME280;23688;33.130;-117.188;2024-01-11T02:31:29;99372.06;;;12.99;100.00
37848;BME280;23688;33.130;-117.188;2024-01-11T02:33:55;99377.41;;;13.04;100.00
37848;BME280;23688;33.130;-117.188;2024-01-11T02:36:22;99372.19;;;13.04;100.00
37848;BME280;23688;33.130;-117.188;2024-01-11T02:38:50;99367.78;;;13.01;100.00
37848;BME280;23688;33.130;-117.188;2024-01-11T02:41:18;99360.72;;;12.97;100.00
37848;BME280;23688;33.130;-117.188;2024-01-11T02:43:48;99366.75;;;12.96;100.00
37848;BME280;23688;33.130;-117.188;2024-01-11T02:46:17;99368.41;;;12.93;100.00
37848;BME280;23688;33.130;-117.188;2024-01-11T02:48:43;99375.16;;;12.86;100.00
37848;BME280;23688;33.130;-117.188;2024-01-11T02:51:10;99354.06;;;12.78;100.00
37848;BME280;23688;33.130;-117.188;2024-01-11T02:53:36;99366.09;;;12.75;100.00
37848;BME280;23688;33.130;-117.188;2024-01-11T02:56:03;99370.34;;;12.71;100.00
37848;BME280;23688;33.130;-117.188;2024-01-11T02:58:29;99385.91;;;12.68;100.00
37848;BME280;23688;33.130;-117.188;2024-01-11T03:00:56;99383.97;;;12.62;100.00
37848;BME280;23688;33.130;-117.188;2024-01-11T03:03:22;99389.03;;;12.58;100.00
37848;BME280;23688;33.130;-117.188;2024-01-11T03:05:49;99391.63;;;12.58;100.00
37848;BME280;23688;33.130;-117.188;2024-01-11T03:08:15;99388.16;;;12.57;100.00
37848;BME280;23688;33.130;-117.188;2024-01-11T03:10:41;99381.13;;;12.55;100.00
37848;BME280;23688;33.130;-117.188;2024-01-11T03:13:08;99389.16;;;12.61;100.00
37848;BME280;23688;33.130;-117.188;2024-01-11T03:15:34;99386.63;;;12.64;100.00
37848;BME280;23688;33.130;-117.188;2024-01-11T03:18:00;99383.19;;;12.65;100.00
37848;BME280;23688;33.130;-117.188;2024-01-11T03:20:27;99386.69;;;12.66;100.00
37848;BME280;23688;33.130;-117.188;2024-01-11T03:22:53;99383.22;;;12.67;100.00
37848;BME280;23688;33.130;-117.188;2024-01-11T03:25:20;99391.06;;;12.67;100.00
37848;BME280;23688;33.130;-117.188;2024-01-11T03:27:48;99380.69;;;12.68;100.00
37848;BME280;23688;33.130;-117.188;2024-01-11T03:30:15;99374.53;;;12.66;100.00
37848;BME280;23688;33.130;-117.188;2024-01-11T03:32:42;99385.06;;;12.69;100.00
37848;BME280;23688;33.130;-117.188;2024-01-11T03:35:08;99376.31;;;12.67;100.00
37848;BME280;23688;33.130;-117.188;2024-01-11T03:37:35;99381.50;;;12.67;100.00
37848;BME280;23688;33.130;-117.188;2024-01-11T03:40:03;99369.97;;;12.59;100.00
37848;BME280;23688;33.130;-117.188;2024-01-11T03:42:29;99373.38;;;12.56;100.00
37848;BME280;23688;33.130;-117.188;2024-01-11T03:44:56;99374.19;;;12.55;100.00
37848;BME280;23688;33.130;-117.188;2024-01-11T03:47:22;99378.59;;;12.56;100.00
37848;BME280;23688;33.130;-117.188;2024-01-11T03:49:48;99386.53;;;12.61;100.00
37848;BME280;23688;33.130;-117.188;2024-01-11T03:52:15;99382.84;;;12.54;100.00
37848;BME280;23688;33.130;-117.188;2024-01-11T03:54:41;99396.75;;;12.55;100.00
37848;BME280;23688;33.130;-117.188;2024-01-11T03:57:07;99392.28;;;12.51;100.00
37848;BME280;23688;33.130;-117.188;2024-01-11T03:59:34;99383.50;;;12.47;100.00
37848;BME280;23688;33.130;-117.188;2024-01-11T04:02:00;99403.75;;;12.56;100.00
37848;BME280;23688;33.130;-117.188;2024-01-11T04:04:27;99392.28;;;12.51;100.00
37848;BME280;23688;33.130;-117.188;2024-01-11T04:06:53;99398.97;;;12.42;100.00
37848;BME280;23688;33.130;-117.188;2024-01-11T04:09:19;99399.03;;;12.18;100.00
37848;BME280;23688;33.130;-117.188;2024-01-11T04:11:46;99411.53;;;12.03;100.00
37848;BME280;23688;33.130;-117.188;2024-01-11T04:14:12;99412.94;;;11.93;100.00
37848;BME280;23688;33.130;-117.188;2024-01-11T04:16:45;99395.34;;;11.62;100.00
37848;BME280;23688;33.130;-117.188;2024-01-11T04:19:11;99421.09;;;11.80;100.00
37848;BME280;23688;33.130;-117.188;2024-01-11T04:21:37;99408.84;;;11.76;100.00
37848;BME280;23688;33.130;-117.188;2024-01-11T04:24:07;99402.53;;;11.69;100.00
37848;BME280;23688;33.130;-117.188;2024-01-11T04:26:33;99426.44;;;11.83;100.00
37848;BME280;23688;33.130;-117.188;2024-01-11T04:29:00;99418.06;;;11.90;100.00
37848;BME280;23688;33.130;-117.188;2024-01-11T04:31:27;99408.63;;;11.94;100.00
37848;BME280;23688;33.130;-117.188;2024-01-11T04:33:53;99421.34;;;11.86;100.00
37848;BME280;23688;33.130;-117.188;2024-01-11T04:36:20;99423.06;;;11.86;100.00
37848;BME280;23688;33.130;-117.188;2024-01-11T04:38:46;99419.81;;;11.91;100.00
37848;BME280;23688;33.130;-117.188;2024-01-11T04:41:13;99432.97;;;11.96;100.00
37848;BME280;23688;33.130;-117.188;2024-01-11T04:43:42;99427.34;;;12.09;100.00
37848;BME280;23688;33.130;-117.188;2024-01-11T04:46:19;99421.53;;;12.16;100.00
37848;BME280;23688;33.130;-117.188;2024-01-11T04:48:46;99423.56;;;12.25;100.00
37848;BME280;23688;33.130;-117.188;2024-01-11T04:51:13;99410.56;;;12.25;100.00
37848;BME280;23688;33.130;-117.188;2024-01-11T04:53:40;99404.47;;;12.25;100.00
37848;BME280;23688;33.130;-117.188;2024-01-11T04:56:08;99397.44;;;12.22;100.00
37848;BME280;23688;33.130;-117.188;2024-01-11T04:58:36;99420.09;;;12.25;100.00
37848;BME280;23688;33.130;-117.188;2024-01-11T05:01:04;99407.00;;;12.23;100.00
37848;BME280;23688;33.130;-117.188;2024-01-11T05:03:31;99405.03;;;12.16;100.00
37848;BME280;23688;33.130;-117.188;2024-01-11T05:05:58;99392.81;;;12.13;100.00
37848;BME280;23688;33.130;-117.188;2024-01-11T05:08:27;99391.78;;;12.08;100.00
37848;BME280;23688;33.130;-117.188;2024-01-11T05:10:54;99398.94;;;12.15;100.00
37848;BME280;23688;33.130;-117.188;2024-01-11T05:13:21;99402.53;;;12.19;100.00
37848;BME280;23688;33.130;-117.188;2024-01-11T05:15:47;99395.56;;;12.18;100.00
37848;BME280;23688;33.130;-117.188;2024-01-11T05:18:14;99406.03;;;12.19;100.00
37848;BME280;23688;33.130;-117.188;2024-01-11T05:20:40;99407.78;;;12.20;100.00
37848;BME280;23688;33.130;-117.188;2024-01-11T05:23:09;99412.13;;;12.20;100.00
37848;BME280;23688;33.130;-117.188;2024-01-11T05:25:35;99410.47;;;12.22;100.00
37848;BME280;23688;33.130;-117.188;2024-01-11T05:28:03;99410.56;;;12.25;100.00
37848;BME280;23688;33.130;-117.188;2024-01-11T05:30:30;99410.56;;;12.25;100.00
37848;BME280;23688;33.130;-117.188;2024-01-11T05:32:56;99405.25;;;12.22;100.00
37848;BME280;23688;33.130;-117.188;2024-01-11T05:35:22;99378.66;;;12.05;100.00
37848;BME280;23688;33.130;-117.188;2024-01-11T05:37:53;99399.00;;;12.17;100.00
37848;BME280;23688;33.130;-117.188;2024-01-11T05:40:23;99397.19;;;12.14;100.00
37848;BME280;23688;33.130;-117.188;2024-01-11T05:42:49;99389.38;;;12.14;100.00
37848;BME280;23688;33.130;-117.188;2024-01-11T05:45:15;99392.75;;;12.12;100.00
37848;BME280;23688;33.130;-117.188;2024-01-11T05:47:43;99383.91;;;12.07;100.00
37848;BME280;23688;33.130;-117.188;2024-01-11T05:50:10;99380.47;;;12.08;100.00
37848;BME280;23688;33.130;-117.188;2024-01-11T05:52:38;99404.34;;;12.21;99.87
37848;BME280;23688;33.130;-117.188;2024-01-11T05:55:04;99396.53;;;12.21;99.73
37848;BME280;23688;33.130;-117.188;2024-01-11T05:57:30;99398.31;;;12.23;99.77
37848;BME280;23688;33.130;-117.188;2024-01-11T05:59:58;99389.56;;;12.20;99.71
37848;BME280;23688;33.130;-117.188;2024-01-11T06:02:25;99394.94;;;12.25;99.26
37848;BME280;23688;33.130;-117.188;2024-01-11T06:04:51;99399.28;;;12.26;98.90
37848;BME280;23688;33.130;-117.188;2024-01-11T06:07:18;99396.53;;;12.21;98.94
37848;BME280;23688;33.130;-117.188;2024-01-11T06:09:44;99393.75;;;12.15;98.63
37848;BME280;23688;33.130;-117.188;2024-01-11T06:12:11;99401.66;;;12.18;99.42
37848;BME280;23688;33.130;-117.188;2024-01-11T06:14:37;99403.28;;;12.15;99.23
37848;BME280;23688;33.130;-117.188;2024-01-11T06:17:03;99388.38;;;12.11;99.41
37848;BME280;23688;33.130;-117.188;2024-01-11T06:19:30;99393.75;;;12.15;98.91
37848;BME280;23688;33.130;-117.188;2024-01-11T06:21:56;99390.81;;;12.06;98.64
37848;BME280;23688;33.130;-117.188;2024-01-11T06:24:25;99383.00;;;12.05;99.07
37848;BME280;23688;33.130;-117.188;2024-01-11T06:26:51;99384.66;;;12.03;99.35
37848;BME280;23688;33.130;-117.188;2024-01-11T06:29:17;99383.72;;;12.01;99.31
37848;BME280;23688;33.130;-117.188;2024-01-11T06:31:43;99400.19;;;12.01;99.32
37848;BME280;23688;33.130;-117.188;2024-01-11T06:34:10;99395.69;;;11.95;99.26
37848;BME280;23688;33.130;-117.188;2024-01-11T06:36:36;99391.25;;;11.93;98.92
37848;BME280;23688;33.130;-117.188;2024-01-11T06:39:02;99398.03;;;11.88;99.58
37848;BME280;23688;33.130;-117.188;2024-01-11T06:41:29;99383.78;;;11.78;99.62
37848;BME280;23688;33.130;-117.188;2024-01-11T06:43:56;99399.50;;;11.81;100.00
37848;BME280;23688;33.130;-117.188;2024-01-11T06:46:23;99396.66;;;11.75;100.00
37848;BME280;23688;33.130;-117.188;2024-01-11T06:48:49;99388.66;;;11.69;100.00
37848;BME280;23688;33.130;-117.188;2024-01-11T06:51:15;99388.44;;;11.63;100.00
37848;BME280;23688;33.130;-117.188;2024-01-11T06:53:42;99393.69;;;11.64;100.00
37848;BME280;23688;33.130;-117.188;2024-01-11T06:56:15;99389.16;;;11.59;100.00
37848;BME280;23688;33.130;-117.188;2024-01-11T06:58:43;99373.16;;;11.48;100.00
37848;BME280;23688;33.130;-117.188;2024-01-11T07:01:09;99377.41;;;11.44;100.00
37848;BME280;23688;33.130;-117.188;2024-01-11T07:03:36;99386.75;;;11.39;100.00
37848;BME280;23688;33.130;-117.188;2024-01-11T07:06:03;99384.94;;;11.38;100.00
37848;BME280;23688;33.130;-117.188;2024-01-11T07:08:30;99381.19;;;11.30;100.00
37848;BME280;23688;33.130;-117.188;2024-01-11T07:11:00;99380.97;;;11.24;100.00
37848;BME280;23688;33.130;-117.188;2024-01-11T07:13:26;99378.25;;;11.21;100.00
37848;BME280;23688;33.130;-117.188;2024-01-11T07:15:52;99373.56;;;11.10;100.00
37848;BME280;23688;33.130;-117.188;2024-01-11T07:18:18;99370.28;;;11.16;100.00
37848;BME280;23688;33.130;-117.188;2024-01-11T07:20:45;99366.75;;;11.14;100.00
37848;BME280;23688;33.130;-117.188;2024-01-11T07:23:11;99371.91;;;11.12;100.00
37848;BME280;23688;33.130;-117.188;2024-01-11T07:25:38;99378.75;;;11.10;100.00
37848;BME280;23688;33.130;-117.188;2024-01-11T07:28:05;99380.41;;;11.08;100.00
37848;BME280;23688;33.130;-117.188;2024-01-11T07:30:31;99373.44;;;11.07;100.00
37848;BME280;23688;33.130;-117.188;2024-01-11T07:32:57;99369.06;;;11.06;100.00
37848;BME280;23688;33.130;-117.188;2024-01-11T07:35:24;99375.81;;;11.01;100.00
37848;BME280;23688;33.130;-117.188;2024-01-11T07:37:50;99374.16;;;11.03;100.00
37848;BME280;23688;33.130;-117.188;2024-01-11T07:40:17;99382.06;;;11.06;100.00
37848;BME280;23688;33.130;-117.188;2024-01-11T07:42:43;99390.72;;;11.07;100.00
37848;BME280;23688;33.130;-117.188;2024-01-11T07:45:10;99389.91;;;11.08;100.00
37848;BME280;23688;33.130;-117.188;2024-01-11T07:47:36;99375.72;;;11.00;100.00
37848;BME280;23688;33.130;-117.188;2024-01-11T07:50:09;99387.25;;;11.06;100.00
37848;BME280;23688;33.130;-117.188;2024-01-11T07:52:39;99382.94;;;11.07;100.00
37848;BME280;23688;33.130;-117.188;2024-01-11T07:55:09;99375.09;;;11.05;100.00
37848;BME280;23688;33.130;-117.188;2024-01-11T07:57:40;99363.47;;;10.96;100.00
37848;BME280;23688;33.130;-117.188;2024-01-11T08:00:10;99371.09;;;10.91;100.00
37848;BME280;23688;33.130;-117.188;2024-01-11T08:02:44;99371.63;;;10.82;100.00
37848;BME280;23688;33.130;-117.188;2024-01-11T08:05:11;99378.59;;;10.83;100.00
37848;BME280;23688;33.130;-117.188;2024-01-11T08:07:38;99374.22;;;10.82;100.00
37848;BME280;23688;33.130;-117.188;2024-01-11T08:10:04;99370.84;;;10.85;100.00
37848;BME280;23688;33.130;-117.188;2024-01-11T08:12:32;99375.41;;;10.90;100.00
37848;BME280;23688;33.130;-117.188;2024-01-11T08:14:58;99358.88;;;10.88;100.00
37848;BME280;23688;33.130;-117.188;2024-01-11T08:17:25;99366.59;;;10.87;100.00
37848;BME280;23688;33.130;-117.188;2024-01-11T08:19:51;99358.41;;;10.76;100.00
37848;BME280;23688;33.130;-117.188;2024-01-11T08:22:17;99375.25;;;10.86;100.00
37848;BME280;23688;33.130;-117.188;2024-01-11T08:24:44;99368.44;;;10.89;100.00
37848;BME280;23688;33.130;-117.188;2024-01-11T08:27:10;99365.84;;;10.89;100.00
37848;BME280;23688;33.130;-117.188;2024-01-11T08:29:36;99365.91;;;10.91;100.00
37848;BME280;23688;33.130;-117.188;2024-01-11T08:32:02;99368.41;;;10.88;100.00
37848;BME280;23688;33.130;-117.188;2024-01-11T08:34:32;99394.66;;;10.96;100.00
37848;BME280;23688;33.130;-117.188;2024-01-11T08:36:59;99386.03;;;10.97;100.00
37848;BME280;23688;33.130;-117.188;2024-01-11T08:39:25;99391.47;;;11.03;100.00
37848;BME280;23688;33.130;-117.188;2024-01-11T08:41:51;99396.53;;;11.00;100.00
37848;BME280;23688;33.130;-117.188;2024-01-11T08:44:18;99379.84;;;10.93;100.00
37848;BME280;23688;33.130;-117.188;2024-01-11T08:46:44;99376.28;;;10.91;100.00
37848;BME280;23688;33.130;-117.188;2024-01-11T08:49:11;99393.41;;;10.86;100.00
37848;BME280;23688;33.130;-117.188;2024-01-11T08:51:37;99392.41;;;10.82;100.00
37848;BME280;23688;33.130;-117.188;2024-01-11T08:54:04;99403.06;;;10.67;100.00
37848;BME280;23688;33.130;-117.188;2024-01-11T08:56:33;99390.16;;;10.46;100.00
37848;BME280;23688;33.130;-117.188;2024-01-11T08:59:00;99386.19;;;10.14;100.00
37848;BME280;23688;33.130;-117.188;2024-01-11T09:01:26;99386.91;;;10.10;100.00
37848;BME280;23688;33.130;-117.188;2024-01-11T09:03:53;99378.44;;;9.93;100.00
37848;BME280;23688;33.130;-117.188;2024-01-11T09:06:19;99395.31;;;9.83;100.00
37848;BME280;23688;33.130;-117.188;2024-01-11T09:08:45;99395.34;;;9.64;100.00
37848;BME280;23688;33.130;-117.188;2024-01-11T09:11:11;99379.38;;;9.55;100.00
37848;BME280;23688;33.130;-117.188;2024-01-11T09:13:38;99392.63;;;9.61;100.00
37848;BME280;23688;33.130;-117.188;2024-01-11T09:16:06;99395.88;;;9.57;100.00
37848;BME280;23688;33.130;-117.188;2024-01-11T09:18:32;99393.00;;;9.51;100.00
37848;BME280;23688;33.130;-117.188;2024-01-11T09:20:59;99383.81;;;9.57;100.00
37848;BME280;23688;33.130;-117.188;2024-01-11T09:23:25;99389.06;;;9.59;100.00
37848;BME280;23688;33.130;-117.188;2024-01-11T09:25:51;99383.06;;;9.60;100.00
37848;BME280;23688;33.130;-117.188;2024-01-11T09:28:17;99397.09;;;9.65;100.00
37848;BME280;23688;33.130;-117.188;2024-01-11T09:30:44;99395.34;;;9.64;100.00
37848;BME280;23688;33.130;-117.188;2024-01-11T09:33:10;99390.41;;;9.70;100.00
37848;BME280;23688;33.130;-117.188;2024-01-11T09:35:37;99397.63;;;9.77;100.00
37848;BME280;23688;33.130;-117.188;2024-01-11T09:38:03;99388.28;;;9.81;100.00
37848;BME280;23688;33.130;-117.188;2024-01-11T09:40:29;99395.22;;;9.82;100.00
37848;BME280;23688;33.130;-117.188;2024-01-11T09:42:56;99373.59;;;9.81;100.00
37848;BME280;23688;33.130;-117.188;2024-01-11T09:45:22;99377.41;;;9.90;100.00
37848;BME280;23688;33.130;-117.188;2024-01-11T09:47:51;99390.84;;;10.00;100.00
37848;BME280;23688;33.130;-117.188;2024-01-11T09:50:18;99388.63;;;10.10;100.00
37848;BME280;23688;33.130;-117.188;2024-01-11T09:52:49;99382.47;;;10.07;100.00
37848;BME280;23688;33.130;-117.188;2024-01-11T09:55:16;99378.06;;;10.05;100.00
37848;BME280;23688;33.130;-117.188;2024-01-11T09:57:47;99379.81;;;10.06;100.00
37848;BME280;23688;33.130;-117.188;2024-01-11T10:00:17;99363.38;;;10.05;100.00
37848;BME280;23688;33.130;-117.188;2024-01-11T10:02:46;99373.22;;;10.14;100.00
37848;BME280;23688;33.130;-117.188;2024-01-11T10:05:12;99392.94;;;10.30;100.00
37848;BME280;23688;33.130;-117.188;2024-01-11T10:07:42;99389.97;;;10.42;100.00
37848;BME280;23688;33.130;-117.188;2024-01-11T10:10:09;99374.03;;;10.33;100.00
37848;BME280;23688;33.130;-117.188;2024-01-11T10:12:38;99387.41;;;10.22;100.00
37848;BME280;23688;33.130;-117.188;2024-01-11T10:15:08;99395.69;;;10.14;100.00
37848;BME280;23688;33.130;-117.188;2024-01-11T10:17:40;99387.72;;;10.09;100.00
37848;BME280;23688;33.130;-117.188;2024-01-11T10:20:07;99376.91;;;9.98;100.00
37848;BME280;23688;33.130;-117.188;2024-01-11T10:22:36;99371.72;;;9.98;100.00
37848;BME280;23688;33.130;-117.188;2024-01-11T10:25:13;99367.50;;;10.00;100.00
37848;BME280;23688;33.130;-117.188;2024-01-11T10:27:40;99370.09;;;10.00;100.00
37848;BME280;23688;33.130;-117.188;2024-01-11T10:30:11;99369.13;;;9.98;100.00
37848;BME280;23688;33.130;-117.188;2024-01-11T10:32:45;99375.28;;;10.00;100.00
37848;BME280;23688;33.130;-117.188;2024-01-11T10:35:13;99337.94;;;9.97;100.00
37848;BME280;23688;33.130;-117.188;2024-01-11T10:37:39;99337.81;;;9.94;100.00
37848;BME280;23688;33.130;-117.188;2024-01-11T10:40:06;99340.72;;;10.01;100.00
37848;BME280;23688;33.130;-117.188;2024-01-11T10:42:42;99327.75;;;10.01;100.00
37848;BME280;23688;33.130;-117.188;2024-01-11T10:45:16;99334.66;;;10.01;100.00
37848;BME280;23688;33.130;-117.188;2024-01-11T10:47:55;99337.31;;;10.02;100.00
37848;BME280;23688;33.130;-117.188;2024-01-11T10:50:25;99352.13;;;10.05;100.00
37848;BME280;23688;33.130;-117.188;2024-01-11T10:53:40;99342.53;;;10.04;100.00
37848;BME280;23688;33.130;-117.188;2024-01-11T10:56:09;99335.72;;;10.06;100.00
37848;BME280;23688;33.130;-117.188;2024-01-11T10:58:43;99312.16;;;10.00;100.00
37848;BME280;23688;33.130;-117.188;2024-01-11T11:01:12;99326.00;;;10.00;100.00
37848;BME280;23688;33.130;-117.188;2024-01-11T11:03:40;99334.38;;;10.16;100.00
37848;BME280;23688;33.130;-117.188;2024-01-11T11:06:09;99340.72;;;10.22;100.00
37848;BME280;23688;33.130;-117.188;2024-01-11T11:08:36;99336.69;;;10.29;100.00
37848;BME280;23688;33.130;-117.188;2024-01-11T11:11:04;99336.09;;;10.36;100.00
37848;BME280;23688;33.130;-117.188;2024-01-11T11:13:34;99315.97;;;10.31;100.00
37848;BME280;23688;33.130;-117.188;2024-01-11T11:16:01;99329.84;;;10.31;100.00
37848;BME280;23688;33.130;-117.188;2024-01-11T11:18:30;99322.59;;;10.45;100.00
37848;BME280;23688;33.130;-117.188;2024-01-11T11:20:57;99301.94;;;10.48;100.00
37848;BME280;23688;33.130;-117.188;2024-01-11T11:23:24;99315.19;;;10.54;100.00
37848;BME280;23688;33.130;-117.188;2024-01-11T11:25:54;99324.34;;;10.46;100.00
37848;BME280;23688;33.130;-117.188;2024-01-11T11:28:23;99326.16;;;10.47;100.00
37848;BME280;23688;33.130;-117.188;2024-01-11T11:30:52;99324.03;;;10.37;100.00
37848;BME280;23688;33.130;-117.188;2024-01-11T11:33:21;99323.09;;;10.36;100.00
37848;BME280;23688;33.130;-117.188;2024-01-11T11:35:48;99319.88;;;10.42;100.00
37848;BME280;23688;33.130;-117.188;2024-01-11T11:38:19;99312.03;;;10.40;100.00
37848;BME280;23688;33.130;-117.188;2024-01-11T11:40:47;99307.09;;;10.46;100.00
37848;BME280;23688;33.130;-117.188;2024-01-11T11:43:18;99290.69;;;10.47;100.00
37848;BME280;23688;33.130;-117.188;2024-01-11T11:45:49;99295.09;;;10.50;100.00
37848;BME280;23688;33.130;-117.188;2024-01-11T11:51:11;99276.59;;;10.63;100.00
37848;BME280;23688;33.130;-117.188;2024-01-11T11:53:39;99276.81;;;10.69;100.00
37848;BME280;23688;33.130;-117.188;2024-01-11T11:56:07;99291.97;;;10.81;100.00
37848;BME280;23688;33.130;-117.188;2024-01-11T11:58:34;99296.31;;;10.82;100.00
37848;BME280;23688;33.130;-117.188;2024-01-11T12:01:02;99289.44;;;10.83;100.00
37848;BME280;23688;33.130;-117.188;2024-01-11T12:03:34;99287.63;;;10.82;100.00
37848;BME280;23688;33.130;-117.188;2024-01-11T12:06:05;99262.44;;;10.79;100.00
37848;BME280;23688;33.130;-117.188;2024-01-11T12:08:32;99284.50;;;10.90;100.00
37848;BME280;23688;33.130;-117.188;2024-01-11T12:10:59;99277.88;;;10.99;100.00
37848;BME280;23688;33.130;-117.188;2024-01-11T12:13:26;99273.63;;;11.01;100.00
37848;BME280;23688;33.130;-117.188;2024-01-11T12:15:52;99284.06;;;11.02;100.00
37848;BME280;23688;33.130;-117.188;2024-01-11T12:18:19;99265.66;;;10.96;100.00
37848;BME280;23688;33.130;-117.188;2024-01-11T12:20:45;99273.00;;;11.08;100.00
37848;BME280;23688;33.130;-117.188;2024-01-11T12:23:11;99265.94;;;11.04;100.00
37848;BME280;23688;33.130;-117.188;2024-01-11T12:25:42;99261.69;;;11.06;100.00
37848;BME280;23688;33.130;-117.188;2024-01-11T12:28:09;99267.13;;;11.13;100.00